sensor_id;sensor_type;location;lat;lon;timestamp;temperature;humidity
13198;DHT22;6664;52.514;13.440;2022-12-07T00:01:20;3.10;83.30
13198;DHT22;6664;52.514;13.440;2022-12-07T00:04:11;3.20;82.60
13198;DHT22;6664;52.514;13.440;2022-12-07T00:06:59;3.20;82.80
13198;DHT22;6664;52.514;13.440;2022-12-07T00:09:45;3.10;82.60
13198;DHT22;6664;52.514;13.440;2022-12-07T00:12:33;3.10;82.10
13198;DHT22;6664;52.514;13.440;2022-12-07T00:15:21;3.10;81.70
13198;DHT22;6664;52.514;13.440;2022-12-07T00:18:06;3.00;81.30
13198;DHT22;6664;52.514;13.440;2022-12-07T00:20:52;3.00;80.80
13198;DHT22;6664;52.514;13.440;2022-12-07T00:23:40;3.00;81.10
13198;DHT22;6664;52.514;13.440;2022-12-07T00:26:32;3.00;79.70
13198;DHT22;6664;52.514;13.440;2022-12-07T00:29:21;3.10;79.30
13198;DHT22;6664;52.514;13.440;2022-12-07T00:32:12;3.00;77.30
13198;DHT22;6664;52.514;13.440;2022-12-07T00:35:00;3.00;77.30
13198;DHT22;6664;52.514;13.440;2022-12-07T00:37:46;3.00;77.30
13198;DHT22;6664;52.514;13.440;2022-12-07T00:40:32;3.00;76.30
13198;DHT22;6664;52.514;13.440;2022-12-07T00:43:17;3.00;77.20
13198;DHT22;6664;52.514;13.440;2022-12-07T00:46:05;2.90;75.80
13198;DHT22;6664;52.514;13.440;2022-12-07T00:48:51;2.90;76.00
13198;DHT22;6664;52.514;13.440;2022-12-07T00:51:37;2.90;76.10
13198;DHT22;6664;52.514;13.440;2022-12-07T00:54:25;2.80;75.90
13198;DHT22;6664;52.514;13.440;2022-12-07T00:57:12;2.70;75.00
13198;DHT22;6664;52.514;13.440;2022-12-07T00:59:58;2.60;75.50
13198;DHT22;6664;52.514;13.440;2022-12-07T01:02:48;2.50;75.60
13198;DHT22;6664;52.514;13.440;2022-12-07T01:05:34;2.40;76.40
13198;DHT22;6664;52.514;13.440;2022-12-07T01:08:20;2.30;76.70
13198;DHT22;6664;52.514;13.440;2022-12-07T01:11:07;2.20;76.60
13198;DHT22;6664;52.514;13.440;2022-12-07T01:13:56;2.10;77.00
13198;DHT22;6664;52.514;13.440;2022-12-07T01:16:42;2.10;77.30
13198;DHT22;6664;52.514;13.440;2022-12-07T01:19:30;2.10;76.50
13198;DHT22;6664;52.514;13.440;2022-12-07T01:22:16;2.20;76.60
13198;DHT22;6664;52.514;13.440;2022-12-07T01:25:02;2.30;76.20
13198;DHT22;6664;52.514;13.440;2022-12-07T01:27:47;2.40;75.80
13198;DHT22;6664;52.514;13.440;2022-12-07T01:30:33;2.50;75.50
13198;DHT22;6664;52.514;13.440;2022-12-07T01:33:18;2.60;75.30
13198;DHT22;6664;52.514;13.440;2022-12-07T01:36:06;2.60;74.90
13198;DHT22;6664;52.514;13.440;2022-12-07T01:38:58;2.60;74.10
13198;DHT22;6664;52.514;13.440;2022-12-07T01:41:45;2.60;73.90
13198;DHT22;6664;52.514;13.440;2022-12-07T01:44:31;2.50;74.10
13198;DHT22;6664;52.514;13.440;2022-12-07T01:47:18;2.50;73.80
13198;DHT22;6664;52.514;13.440;2022-12-07T01:50:06;2.50;73.40
13198;DHT22;6664;52.514;13.440;2022-12-07T01:52:53;2.60;72.80
13198;DHT22;6664;52.514;13.440;2022-12-07T01:55:42;2.50;72.00
13198;DHT22;6664;52.514;13.440;2022-12-07T01:58:29;2.60;72.30
13198;DHT22;6664;52.514;13.440;2022-12-07T02:01:15;2.60;72.30
13198;DHT22;6664;52.514;13.440;2022-12-07T02:04:01;2.60;71.90
13198;DHT22;6664;52.514;13.440;2022-12-07T02:06:47;2.60;71.40
13198;DHT22;6664;52.514;13.440;2022-12-07T02:09:33;2.60;71.30
13198;DHT22;6664;52.514;13.440;2022-12-07T02:12:19;2.60;71.30
13198;DHT22;6664;52.514;13.440;2022-12-07T02:15:05;2.70;71.30
13198;DHT22;6664;52.514;13.440;2022-12-07T02:18:05;2.70;71.30
13198;DHT22;6664;52.514;13.440;2022-12-07T02:21:14;2.60;71.50
13198;DHT22;6664;52.514;13.440;2022-12-07T02:24:14;2.60;71.80
13198;DHT22;6664;52.514;13.440;2022-12-07T02:27:14;2.50;71.50
13198;DHT22;6664;52.514;13.440;2022-12-07T02:30:15;2.50;71.40
13198;DHT22;6664;52.514;13.440;2022-12-07T02:41:46;2.30;72.70
13198;DHT22;6664;52.514;13.440;2022-12-07T02:44:34;2.30;73.40
13198;DHT22;6664;52.514;13.440;2022-12-07T02:47:21;2.20;73.80
13198;DHT22;6664;52.514;13.440;2022-12-07T02:50:10;2.20;74.30
13198;DHT22;6664;52.514;13.440;2022-12-07T02:52:57;2.20;74.60
13198;DHT22;6664;52.514;13.440;2022-12-07T02:55:42;2.20;74.90
13198;DHT22;6664;52.514;13.440;2022-12-07T02:58:49;2.30;75.10
13198;DHT22;6664;52.514;13.440;2022-12-07T03:11:07;2.40;75.50
13198;DHT22;6664;52.514;13.440;2022-12-07T03:17:22;2.50;75.60
13198;DHT22;6664;52.514;13.440;2022-12-07T03:20:14;2.50;75.40
13198;DHT22;6664;52.514;13.440;2022-12-07T03:23:05;2.50;75.40
13198;DHT22;6664;52.514;13.440;2022-12-07T03:25:55;2.50;75.60
13198;DHT22;6664;52.514;13.440;2022-12-07T03:28:50;2.50;75.70
13198;DHT22;6664;52.514;13.440;2022-12-07T03:31:41;2.60;75.70
13198;DHT22;6664;52.514;13.440;2022-12-07T03:34:38;2.60;75.70
13198;DHT22;6664;52.514;13.440;2022-12-07T03:37:41;2.70;75.80
13198;DHT22;6664;52.514;13.440;2022-12-07T03:40:48;2.70;75.50
13198;DHT22;6664;52.514;13.440;2022-12-07T03:43:39;2.80;75.50
13198;DHT22;6664;52.514;13.440;2022-12-07T03:57:50;2.80;75.40
13198;DHT22;6664;52.514;13.440;2022-12-07T04:00:37;2.80;75.20
13198;DHT22;6664;52.514;13.440;2022-12-07T04:03:23;2.80;75.50
13198;DHT22;6664;52.514;13.440;2022-12-07T04:06:08;2.90;75.80
13198;DHT22;6664;52.514;13.440;2022-12-07T04:08:54;2.90;75.60
13198;DHT22;6664;52.514;13.440;2022-12-07T04:11:43;2.70;75.90
13198;DHT22;6664;52.514;13.440;2022-12-07T04:14:28;2.60;76.90
13198;DHT22;6664;52.514;13.440;2022-12-07T04:17:14;2.50;77.00
13198;DHT22;6664;52.514;13.440;2022-12-07T04:19:59;2.50;77.90
13198;DHT22;6664;52.514;13.440;2022-12-07T04:22:45;2.30;78.40
13198;DHT22;6664;52.514;13.440;2022-12-07T04:25:31;2.30;79.50
13198;DHT22;6664;52.514;13.440;2022-12-07T04:28:19;2.30;80.30
13198;DHT22;6664;52.514;13.440;2022-12-07T04:31:04;2.30;81.00
13198;DHT22;6664;52.514;13.440;2022-12-07T04:33:50;2.30;81.60
13198;DHT22;6664;52.514;13.440;2022-12-07T04:36:36;2.20;81.60
13198;DHT22;6664;52.514;13.440;2022-12-07T04:39:26;2.20;82.40
13198;DHT22;6664;52.514;13.440;2022-12-07T04:42:11;2.20;82.80
13198;DHT22;6664;52.514;13.440;2022-12-07T04:44:58;2.20;83.40
13198;DHT22;6664;52.514;13.440;2022-12-07T04:47:43;2.20;83.60
13198;DHT22;6664;52.514;13.440;2022-12-07T04:50:29;2.30;83.80
13198;DHT22;6664;52.514;13.440;2022-12-07T04:53:14;2.30;84.30
13198;DHT22;6664;52.514;13.440;2022-12-07T04:56:03;2.30;84.30
13198;DHT22;6664;52.514;13.440;2022-12-07T04:58:52;2.20;85.30
13198;DHT22;6664;52.514;13.440;2022-12-07T05:01:38;2.20;86.30
13198;DHT22;6664;52.514;13.440;2022-12-07T05:04:24;2.30;86.60
13198;DHT22;6664;52.514;13.440;2022-12-07T05:07:09;2.30;86.10
13198;DHT22;6664;52.514;13.440;2022-12-07T05:09:57;2.40;86.20
13198;DHT22;6664;52.514;13.440;2022-12-07T05:12:42;2.40;86.30
13198;DHT22;6664;52.514;13.440;2022-12-07T05:15:28;2.40;86.40
13198;DHT22;6664;52.514;13.440;2022-12-07T05:18:14;2.50;86.40
13198;DHT22;6664;52.514;13.440;2022-12-07T05:21:02;2.50;86.50
13198;DHT22;6664;52.514;13.440;2022-12-07T05:23:48;2.50;86.20
13198;DHT22;6664;52.514;13.440;2022-12-07T05:26:35;2.50;86.10
13198;DHT22;6664;52.514;13.440;2022-12-07T05:29:21;2.60;86.00
13198;DHT22;6664;52.514;13.440;2022-12-07T05:32:06;2.60;85.80
13198;DHT22;6664;52.514;13.440;2022-12-07T05:34:56;2.70;85.60
13198;DHT22;6664;52.514;13.440;2022-12-07T05:37:42;2.70;85.70
13198;DHT22;6664;52.514;13.440;2022-12-07T05:40:27;2.70;85.60
13198;DHT22;6664;52.514;13.440;2022-12-07T05:43:14;2.70;85.90
13198;DHT22;6664;52.514;13.440;2022-12-07T05:46:02;2.80;86.30
13198;DHT22;6664;52.514;13.440;2022-12-07T05:48:49;2.90;86.00
13198;DHT22;6664;52.514;13.440;2022-12-07T05:51:35;3.00;85.70
13198;DHT22;6664;52.514;13.440;2022-12-07T05:54:20;2.90;85.90
13198;DHT22;6664;52.514;13.440;2022-12-07T05:57:07;3.00;85.60
13198;DHT22;6664;52.514;13.440;2022-12-07T05:59:52;3.10;85.50
13198;DHT22;6664;52.514;13.440;2022-12-07T06:02:37;3.20;86.40
13198;DHT22;6664;52.514;13.440;2022-12-07T06:05:23;3.20;85.40
13198;DHT22;6664;52.514;13.440;2022-12-07T06:08:10;3.20;85.20
13198;DHT22;6664;52.514;13.440;2022-12-07T06:10:56;3.20;85.30
13198;DHT22;6664;52.514;13.440;2022-12-07T06:14:00;3.30;85.40
13198;DHT22;6664;52.514;13.440;2022-12-07T06:16:46;3.30;85.60
13198;DHT22;6664;52.514;13.440;2022-12-07T06:19:33;3.40;85.40
13198;DHT22;6664;52.514;13.440;2022-12-07T06:22:21;3.40;85.30
13198;DHT22;6664;52.514;13.440;2022-12-07T06:25:09;3.40;84.90
13198;DHT22;6664;52.514;13.440;2022-12-07T06:27:55;3.40;84.90
13198;DHT22;6664;52.514;13.440;2022-12-07T06:30:40;3.40;85.80
13198;DHT22;6664;52.514;13.440;2022-12-07T06:33:29;3.40;85.80
13198;DHT22;6664;52.514;13.440;2022-12-07T06:36:16;3.40;85.70
13198;DHT22;6664;52.514;13.440;2022-12-07T06:39:10;3.40;85.50
13198;DHT22;6664;52.514;13.440;2022-12-07T06:41:57;3.40;85.70
13198;DHT22;6664;52.514;13.440;2022-12-07T06:44:43;3.30;85.50
13198;DHT22;6664;52.514;13.440;2022-12-07T06:47:29;3.30;85.60
13198;DHT22;6664;52.514;13.440;2022-12-07T06:50:26;3.40;85.70
13198;DHT22;6664;52.514;13.440;2022-12-07T06:53:12;3.40;85.40
13198;DHT22;6664;52.514;13.440;2022-12-07T06:56:01;3.50;85.70
13198;DHT22;6664;52.514;13.440;2022-12-07T06:58:49;3.50;86.80
13198;DHT22;6664;52.514;13.440;2022-12-07T07:01:36;3.50;86.40
13198;DHT22;6664;52.514;13.440;2022-12-07T07:04:24;3.50;86.00
13198;DHT22;6664;52.514;13.440;2022-12-07T07:07:10;3.60;86.00
13198;DHT22;6664;52.514;13.440;2022-12-07T07:09:57;3.70;85.80
13198;DHT22;6664;52.514;13.440;2022-12-07T07:12:43;3.70;85.30
13198;DHT22;6664;52.514;13.440;2022-12-07T07:15:29;3.80;85.50
13198;DHT22;6664;52.514;13.440;2022-12-07T07:18:17;3.80;84.80
13198;DHT22;6664;52.514;13.440;2022-12-07T07:21:03;3.90;84.80
13198;DHT22;6664;52.514;13.440;2022-12-07T07:23:48;3.90;84.40
13198;DHT22;6664;52.514;13.440;2022-12-07T07:26:36;3.90;84.00
13198;DHT22;6664;52.514;13.440;2022-12-07T07:29:25;4.00;83.40
13198;DHT22;6664;52.514;13.440;2022-12-07T07:32:10;4.00;83.70
13198;DHT22;6664;52.514;13.440;2022-12-07T07:34:55;4.00;83.20
13198;DHT22;6664;52.514;13.440;2022-12-07T07:37:43;4.00;82.70
13198;DHT22;6664;52.514;13.440;2022-12-07T07:40:29;4.00;82.60
13198;DHT22;6664;52.514;13.440;2022-12-07T07:43:14;3.90;82.40
13198;DHT22;6664;52.514;13.440;2022-12-07T07:46:00;3.90;82.40
13198;DHT22;6664;52.514;13.440;2022-12-07T07:48:48;3.70;82.00
13198;DHT22;6664;52.514;13.440;2022-12-07T07:51:34;3.60;82.30
13198;DHT22;6664;52.514;13.440;2022-12-07T07:54:19;3.70;82.60
13198;DHT22;6664;52.514;13.440;2022-12-07T07:57:05;3.90;81.80
13198;DHT22;6664;52.514;13.440;2022-12-07T07:59:50;4.00;80.00
13198;DHT22;6664;52.514;13.440;2022-12-07T08:02:36;4.10;80.40
13198;DHT22;6664;52.514;13.440;2022-12-07T08:05:21;4.10;79.40
13198;DHT22;6664;52.514;13.440;2022-12-07T08:08:07;4.10;79.50
13198;DHT22;6664;52.514;13.440;2022-12-07T08:10:52;4.00;79.00
13198;DHT22;6664;52.514;13.440;2022-12-07T08:13:38;4.10;79.30
13198;DHT22;6664;52.514;13.440;2022-12-07T08:16:28;4.10;79.00
13198;DHT22;6664;52.514;13.440;2022-12-07T08:19:18;4.10;78.30
13198;DHT22;6664;52.514;13.440;2022-12-07T08:22:04;4.20;78.40
13198;DHT22;6664;52.514;13.440;2022-12-07T08:24:50;4.20;78.00
13198;DHT22;6664;52.514;13.440;2022-12-07T08:27:35;4.20;77.10
13198;DHT22;6664;52.514;13.440;2022-12-07T08:30:21;4.30;77.10
13198;DHT22;6664;52.514;13.440;2022-12-07T08:33:07;4.30;77.00
13198;DHT22;6664;52.514;13.440;2022-12-07T08:35:54;4.40;76.40
13198;DHT22;6664;52.514;13.440;2022-12-07T08:38:42;4.40;75.70
13198;DHT22;6664;52.514;13.440;2022-12-07T08:41:48;4.40;75.20
13198;DHT22;6664;52.514;13.440;2022-12-07T08:44:34;4.50;75.00
13198;DHT22;6664;52.514;13.440;2022-12-07T08:47:19;4.50;73.20
13198;DHT22;6664;52.514;13.440;2022-12-07T08:50:10;4.50;71.10
13198;DHT22;6664;52.514;13.440;2022-12-07T08:52:58;4.50;70.70
13198;DHT22;6664;52.514;13.440;2022-12-07T08:55:46;4.50;70.20
13198;DHT22;6664;52.514;13.440;2022-12-07T08:58:34;4.50;69.10
13198;DHT22;6664;52.514;13.440;2022-12-07T09:01:22;4.50;68.60
13198;DHT22;6664;52.514;13.440;2022-12-07T09:04:11;4.60;68.30
13198;DHT22;6664;52.514;13.440;2022-12-07T09:06:57;4.50;66.10
13198;DHT22;6664;52.514;13.440;2022-12-07T09:09:44;4.60;66.30
13198;DHT22;6664;52.514;13.440;2022-12-07T09:12:30;4.60;65.90
13198;DHT22;6664;52.514;13.440;2022-12-07T09:15:20;4.60;64.80
13198;DHT22;6664;52.514;13.440;2022-12-07T09:18:06;4.50;64.30
13198;DHT22;6664;52.514;13.440;2022-12-07T09:20:52;4.50;64.10
13198;DHT22;6664;52.514;13.440;2022-12-07T09:23:38;4.50;63.70
13198;DHT22;6664;52.514;13.440;2022-12-07T09:26:26;4.50;63.40
13198;DHT22;6664;52.514;13.440;2022-12-07T09:29:11;4.30;63.10
13198;DHT22;6664;52.514;13.440;2022-12-07T09:32:00;4.10;62.70
13198;DHT22;6664;52.514;13.440;2022-12-07T09:34:54;4.20;62.90
13198;DHT22;6664;52.514;13.440;2022-12-07T09:37:40;4.30;63.10
13198;DHT22;6664;52.514;13.440;2022-12-07T09:40:27;4.20;63.50
13198;DHT22;6664;52.514;13.440;2022-12-07T09:43:17;4.20;63.10
13198;DHT22;6664;52.514;13.440;2022-12-07T09:46:13;4.10;63.70
13198;DHT22;6664;52.514;13.440;2022-12-07T09:49:00;4.10;62.90
13198;DHT22;6664;52.514;13.440;2022-12-07T09:51:47;4.30;63.30
13198;DHT22;6664;52.514;13.440;2022-12-07T09:54:36;4.10;62.70
13198;DHT22;6664;52.514;13.440;2022-12-07T09:57:32;4.20;63.30
13198;DHT22;6664;52.514;13.440;2022-12-07T10:00:23;4.10;62.60
13198;DHT22;6664;52.514;13.440;2022-12-07T10:03:11;4.10;62.80
13198;DHT22;6664;52.514;13.440;2022-12-07T10:05:57;4.00;62.60
13198;DHT22;6664;52.514;13.440;2022-12-07T10:08:45;4.00;62.30
13198;DHT22;6664;52.514;13.440;2022-12-07T10:11:30;4.10;62.50
13198;DHT22;6664;52.514;13.440;2022-12-07T10:14:16;4.10;62.40
13198;DHT22;6664;52.514;13.440;2022-12-07T10:17:01;4.20;62.70
13198;DHT22;6664;52.514;13.440;2022-12-07T10:19:47;4.10;62.10
13198;DHT22;6664;52.514;13.440;2022-12-07T10:22:33;4.10;62.10
13198;DHT22;6664;52.514;13.440;2022-12-07T10:25:21;4.00;62.50
13198;DHT22;6664;52.514;13.440;2022-12-07T10:31:15;4.10;62.50
13198;DHT22;6664;52.514;13.440;2022-12-07T10:34:08;4.20;62.30
13198;DHT22;6664;52.514;13.440;2022-12-07T10:40:32;3.80;63.00
13198;DHT22;6664;52.514;13.440;2022-12-07T10:43:21;3.60;63.60
13198;DHT22;6664;52.514;13.440;2022-12-07T10:55:27;4.00;64.10
13198;DHT22;6664;52.514;13.440;2022-12-07T10:58:40;4.00;64.20
13198;DHT22;6664;52.514;13.440;2022-12-07T11:04:41;4.30;64.10
13198;DHT22;6664;52.514;13.440;2022-12-07T11:07:39;4.30;63.10
13198;DHT22;6664;52.514;13.440;2022-12-07T11:13:21;4.30;63.70
13198;DHT22;6664;52.514;13.440;2022-12-07T11:16:34;4.30;64.50
13198;DHT22;6664;52.514;13.440;2022-12-07T11:22:55;4.40;64.90
13198;DHT22;6664;52.514;13.440;2022-12-07T11:25:59;4.50;65.10
13198;DHT22;6664;52.514;13.440;2022-12-07T11:38:16;4.60;64.30
13198;DHT22;6664;52.514;13.440;2022-12-07T11:41:06;4.50;64.50
13198;DHT22;6664;52.514;13.440;2022-12-07T11:44:07;4.40;64.50
13198;DHT22;6664;52.514;13.440;2022-12-07T11:47:13;4.30;64.90
13198;DHT22;6664;52.514;13.440;2022-12-07T11:53:17;4.60;64.70
13198;DHT22;6664;52.514;13.440;2022-12-07T11:56:11;4.50;64.10
13198;DHT22;6664;52.514;13.440;2022-12-07T12:05:24;4.60;64.70
13198;DHT22;6664;52.514;13.440;2022-12-07T12:08:17;4.80;64.50
13198;DHT22;6664;52.514;13.440;2022-12-07T12:11:42;4.60;63.80
13198;DHT22;6664;52.514;13.440;2022-12-07T12:18:01;4.80;64.40
13198;DHT22;6664;52.514;13.440;2022-12-07T12:20:57;4.90;64.20
13198;DHT22;6664;52.514;13.440;2022-12-07T12:26:40;5.20;63.80
13198;DHT22;6664;52.514;13.440;2022-12-07T12:29:43;5.10;63.80
13198;DHT22;6664;52.514;13.440;2022-12-07T12:35:35;5.10;63.80
13198;DHT22;6664;52.514;13.440;2022-12-07T12:38:29;5.10;63.80
13198;DHT22;6664;52.514;13.440;2022-12-07T12:50:33;5.00;63.70
13198;DHT22;6664;52.514;13.440;2022-12-07T12:53:26;4.90;64.20
13198;DHT22;6664;52.514;13.440;2022-12-07T12:56:32;4.90;64.30
13198;DHT22;6664;52.514;13.440;2022-12-07T13:02:31;4.90;64.60
13198;DHT22;6664;52.514;13.440;2022-12-07T13:05:21;4.90;64.50
13198;DHT22;6664;52.514;13.440;2022-12-07T13:08:22;5.00;64.60
13198;DHT22;6664;52.514;13.440;2022-12-07T13:11:34;5.00;64.60
13198;DHT22;6664;52.514;13.440;2022-12-07T13:14:43;4.90;64.90
13198;DHT22;6664;52.514;13.440;2022-12-07T13:20:49;5.00;65.10
13198;DHT22;6664;52.514;13.440;2022-12-07T13:29:21;5.00;65.30
13198;DHT22;6664;52.514;13.440;2022-12-07T13:32:24;5.00;65.40
13198;DHT22;6664;52.514;13.440;2022-12-07T13:35:33;5.00;65.60
13198;DHT22;6664;52.514;13.440;2022-12-07T13:38:27;4.90;65.80
13198;DHT22;6664;52.514;13.440;2022-12-07T13:41:16;4.90;66.00
13198;DHT22;6664;52.514;13.440;2022-12-07T13:44:11;4.90;66.10
13198;DHT22;6664;52.514;13.440;2022-12-07T13:53:12;4.80;66.70
13198;DHT22;6664;52.514;13.440;2022-12-07T13:56:00;4.80;66.30
13198;DHT22;6664;52.514;13.440;2022-12-07T13:58:46;4.80;66.30
13198;DHT22;6664;52.514;13.440;2022-12-07T14:01:32;4.80;66.40
13198;DHT22;6664;52.514;13.440;2022-12-07T14:04:34;4.80;65.70
13198;DHT22;6664;52.514;13.440;2022-12-07T14:07:29;4.70;66.00
13198;DHT22;6664;52.514;13.440;2022-12-07T14:10:25;4.80;66.10
13198;DHT22;6664;52.514;13.440;2022-12-07T14:13:27;4.70;66.20
13198;DHT22;6664;52.514;13.440;2022-12-07T14:16:24;4.70;66.20
13198;DHT22;6664;52.514;13.440;2022-12-07T14:19:46;4.80;66.30
13198;DHT22;6664;52.514;13.440;2022-12-07T14:22:37;4.70;66.10
13198;DHT22;6664;52.514;13.440;2022-12-07T14:25:25;4.60;66.60
13198;DHT22;6664;52.514;13.440;2022-12-07T14:31:12;4.60;66.50
13198;DHT22;6664;52.514;13.440;2022-12-07T14:34:12;4.50;66.90
13198;DHT22;6664;52.514;13.440;2022-12-07T14:36:57;4.40;67.00
13198;DHT22;6664;52.514;13.440;2022-12-07T14:39:45;4.40;67.30
13198;DHT22;6664;52.514;13.440;2022-12-07T14:42:33;4.20;68.10
13198;DHT22;6664;52.514;13.440;2022-12-07T14:45:21;4.10;68.20
13198;DHT22;6664;52.514;13.440;2022-12-07T14:48:11;4.10;69.30
13198;DHT22;6664;52.514;13.440;2022-12-07T14:51:20;4.00;69.60
13198;DHT22;6664;52.514;13.440;2022-12-07T14:54:30;4.00;70.40
13198;DHT22;6664;52.514;13.440;2022-12-07T14:57:16;3.90;70.90
13198;DHT22;6664;52.514;13.440;2022-12-07T15:00:09;3.70;71.10
13198;DHT22;6664;52.514;13.440;2022-12-07T15:03:01;3.80;72.00
13198;DHT22;6664;52.514;13.440;2022-12-07T15:05:46;3.70;72.10
13198;DHT22;6664;52.514;13.440;2022-12-07T15:08:33;3.60;72.20
13198;DHT22;6664;52.514;13.440;2022-12-07T15:11:19;3.50;72.70
13198;DHT22;6664;52.514;13.440;2022-12-07T15:14:07;3.50;72.80
13198;DHT22;6664;52.514;13.440;2022-12-07T15:16:57;3.50;72.70
13198;DHT22;6664;52.514;13.440;2022-12-07T15:19:56;3.40;72.90
13198;DHT22;6664;52.514;13.440;2022-12-07T15:22:42;3.30;73.10
13198;DHT22;6664;52.514;13.440;2022-12-07T15:25:30;3.20;73.60
13198;DHT22;6664;52.514;13.440;2022-12-07T15:28:16;3.30;73.20
13198;DHT22;6664;52.514;13.440;2022-12-07T15:31:02;3.20;73.10
13198;DHT22;6664;52.514;13.440;2022-12-07T15:34:08;3.20;73.30
13198;DHT22;6664;52.514;13.440;2022-12-07T15:36:57;3.20;73.00
13198;DHT22;6664;52.514;13.440;2022-12-07T15:39:43;3.20;72.80
13198;DHT22;6664;52.514;13.440;2022-12-07T15:42:29;3.40;72.70
13198;DHT22;6664;52.514;13.440;2022-12-07T15:45:14;3.50;72.00
13198;DHT22;6664;52.514;13.440;2022-12-07T15:48:02;3.50;72.00
13198;DHT22;6664;52.514;13.440;2022-12-07T15:51:09;3.50;72.30
13198;DHT22;6664;52.514;13.440;2022-12-07T15:53:57;3.70;72.30
13198;DHT22;6664;52.514;13.440;2022-12-07T15:56:49;3.60;72.00
13198;DHT22;6664;52.514;13.440;2022-12-07T15:59:37;3.60;72.60
13198;DHT22;6664;52.514;13.440;2022-12-07T16:02:22;3.70;72.30
13198;DHT22;6664;52.514;13.440;2022-12-07T16:05:08;3.80;71.20
13198;DHT22;6664;52.514;13.440;2022-12-07T16:07:54;3.80;71.20
13198;DHT22;6664;52.514;13.440;2022-12-07T16:10:40;3.90;71.30
13198;DHT22;6664;52.514;13.440;2022-12-07T16:13:28;3.70;71.50
13198;DHT22;6664;52.514;13.440;2022-12-07T16:16:15;3.60;71.90
13198;DHT22;6664;52.514;13.440;2022-12-07T16:19:01;3.50;72.00
13198;DHT22;6664;52.514;13.440;2022-12-07T16:21:47;3.50;72.20
13198;DHT22;6664;52.514;13.440;2022-12-07T16:24:33;3.50;72.00
13198;DHT22;6664;52.514;13.440;2022-12-07T16:27:19;3.30;72.30
13198;DHT22;6664;52.514;13.440;2022-12-07T16:30:07;3.20;72.50
13198;DHT22;6664;52.514;13.440;2022-12-07T16:32:52;3.20;72.30
13198;DHT22;6664;52.514;13.440;2022-12-07T16:35:47;3.30;72.00
13198;DHT22;6664;52.514;13.440;2022-12-07T16:38:36;3.30;72.20
13198;DHT22;6664;52.514;13.440;2022-12-07T16:41:25;3.30;72.50
13198;DHT22;6664;52.514;13.440;2022-12-07T16:44:12;3.20;72.60
13198;DHT22;6664;52.514;13.440;2022-12-07T16:46:58;3.10;72.80
13198;DHT22;6664;52.514;13.440;2022-12-07T16:49:45;3.00;73.40
13198;DHT22;6664;52.514;13.440;2022-12-07T16:52:31;3.00;73.70
13198;DHT22;6664;52.514;13.440;2022-12-07T16:55:17;2.80;74.10
13198;DHT22;6664;52.514;13.440;2022-12-07T16:58:02;2.80;74.10
13198;DHT22;6664;52.514;13.440;2022-12-07T17:00:48;2.70;74.40
13198;DHT22;6664;52.514;13.440;2022-12-07T17:03:36;2.70;74.60
13198;DHT22;6664;52.514;13.440;2022-12-07T17:06:24;2.70;75.10
13198;DHT22;6664;52.514;13.440;2022-12-07T17:09:09;2.60;74.80
13198;DHT22;6664;52.514;13.440;2022-12-07T17:12:05;2.50;74.80
13198;DHT22;6664;52.514;13.440;2022-12-07T17:14:54;2.50;74.50
13198;DHT22;6664;52.514;13.440;2022-12-07T17:17:58;2.60;74.90
13198;DHT22;6664;52.514;13.440;2022-12-07T17:20:44;2.50;74.60
13198;DHT22;6664;52.514;13.440;2022-12-07T17:23:30;2.60;74.60
13198;DHT22;6664;52.514;13.440;2022-12-07T17:26:20;2.50;74.40
13198;DHT22;6664;52.514;13.440;2022-12-07T17:29:07;2.60;74.30
13198;DHT22;6664;52.514;13.440;2022-12-07T17:31:53;2.60;73.90
13198;DHT22;6664;52.514;13.440;2022-12-07T17:34:39;2.50;73.60
13198;DHT22;6664;52.514;13.440;2022-12-07T17:37:25;2.40;74.40
13198;DHT22;6664;52.514;13.440;2022-12-07T17:40:12;2.40;74.60
13198;DHT22;6664;52.514;13.440;2022-12-07T17:42:58;2.30;74.80
13198;DHT22;6664;52.514;13.440;2022-12-07T17:45:47;2.30;74.60
13198;DHT22;6664;52.514;13.440;2022-12-07T17:48:38;2.20;75.10
13198;DHT22;6664;52.514;13.440;2022-12-07T17:51:23;2.30;75.30
13198;DHT22;6664;52.514;13.440;2022-12-07T17:54:28;2.30;75.30
13198;DHT22;6664;52.514;13.440;2022-12-07T17:57:14;2.20;75.60
13198;DHT22;6664;52.514;13.440;2022-12-07T17:59:59;2.20;75.70
13198;DHT22;6664;52.514;13.440;2022-12-07T18:02:48;2.20;76.30
13198;DHT22;6664;52.514;13.440;2022-12-07T18:05:36;2.20;76.30
13198;DHT22;6664;52.514;13.440;2022-12-07T18:08:25;2.00;76.40
13198;DHT22;6664;52.514;13.440;2022-12-07T18:11:10;2.10;76.30
13198;DHT22;6664;52.514;13.440;2022-12-07T18:13:59;2.10;76.50
13198;DHT22;6664;52.514;13.440;2022-12-07T18:16:45;2.10;76.50
13198;DHT22;6664;52.514;13.440;2022-12-07T18:19:31;2.00;76.40
13198;DHT22;6664;52.514;13.440;2022-12-07T18:22:17;2.00;76.50
13198;DHT22;6664;52.514;13.440;2022-12-07T18:25:09;1.90;76.30
13198;DHT22;6664;52.514;13.440;2022-12-07T18:27:57;1.90;76.40
13198;DHT22;6664;52.514;13.440;2022-12-07T18:30:43;1.90;76.40
13198;DHT22;6664;52.514;13.440;2022-12-07T18:33:58;1.80;77.10
13198;DHT22;6664;52.514;13.440;2022-12-07T18:36:49;2.00;76.40
13198;DHT22;6664;52.514;13.440;2022-12-07T18:39:35;1.90;76.70
13198;DHT22;6664;52.514;13.440;2022-12-07T18:42:21;1.90;76.80
13198;DHT22;6664;52.514;13.440;2022-12-07T18:45:06;1.70;77.20
13198;DHT22;6664;52.514;13.440;2022-12-07T18:47:52;1.70;77.70
13198;DHT22;6664;52.514;13.440;2022-12-07T18:50:38;1.60;77.50
13198;DHT22;6664;52.514;13.440;2022-12-07T18:53:26;1.70;77.40
13198;DHT22;6664;52.514;13.440;2022-12-07T18:56:17;1.70;76.80
13198;DHT22;6664;52.514;13.440;2022-12-07T18:59:05;1.60;77.20
13198;DHT22;6664;52.514;13.440;2022-12-07T19:02:09;1.60;76.70
13198;DHT22;6664;52.514;13.440;2022-12-07T19:04:55;1.60;76.70
13198;DHT22;6664;52.514;13.440;2022-12-07T19:07:41;1.50;76.90
13198;DHT22;6664;52.514;13.440;2022-12-07T19:10:26;1.50;77.10
13198;DHT22;6664;52.514;13.440;2022-12-07T19:13:12;1.50;77.10
13198;DHT22;6664;52.514;13.440;2022-12-07T19:15:57;1.50;77.60
13198;DHT22;6664;52.514;13.440;2022-12-07T19:18:45;1.50;77.70
13198;DHT22;6664;52.514;13.440;2022-12-07T19:21:35;1.40;77.30
13198;DHT22;6664;52.514;13.440;2022-12-07T19:24:21;1.30;77.50
13198;DHT22;6664;52.514;13.440;2022-12-07T19:27:08;1.30;77.10
13198;DHT22;6664;52.514;13.440;2022-12-07T19:29:55;1.30;77.50
13198;DHT22;6664;52.514;13.440;2022-12-07T19:32:43;1.40;78.30
13198;DHT22;6664;52.514;13.440;2022-12-07T19:35:28;1.40;78.70
13198;DHT22;6664;52.514;13.440;2022-12-07T19:38:14;1.30;78.90
13198;DHT22;6664;52.514;13.440;2022-12-07T19:41:09;1.30;80.10
13198;DHT22;6664;52.514;13.440;2022-12-07T19:44:33;1.20;79.80
13198;DHT22;6664;52.514;13.440;2022-12-07T19:47:19;1.30;80.50
13198;DHT22;6664;52.514;13.440;2022-12-07T19:50:09;1.30;80.70
13198;DHT22;6664;52.514;13.440;2022-12-07T19:52:57;1.20;80.70
13198;DHT22;6664;52.514;13.440;2022-12-07T19:55:42;1.10;80.50
13198;DHT22;6664;52.514;13.440;2022-12-07T19:58:31;1.10;80.90
13198;DHT22;6664;52.514;13.440;2022-12-07T20:01:16;1.10;81.50
13198;DHT22;6664;52.514;13.440;2022-12-07T20:04:09;1.20;81.30